Time;durP1;ratioP1;P1;durP2;ratioP2;P2;SDS_P1;SDS_P2;PMS_P1;PMS_P2;Temp;Humidity;BMP_temperature;BMP_pressure;BME280_temperature;BME280_humidity;BME280_pressure;Samples;Min_cycle;Max_cycle;Signal;HPM_P1;HPM_P2
2022/01/22 00:00:51;;;;;;;9.93;4.78;;;;;;;;;;4915258;29;20024;-71
2022/01/22 00:03:17;;;;;;;9.65;4.90;;;;;;;;;;4905678;29;20020;-74
2022/01/22 00:05:42;;;;;;;8.75;4.95;;;;;;;;;;4908259;29;20442;-75
2022/01/22 00:08:08;;;;;;;12.05;4.95;;;;;;;;;;4912958;29;20032;-76
2022/01/22 00:10:34;;;;;;;9.82;4.43;;;;;;;;;;4902159;29;20064;-75
2022/01/22 00:15:25;;;;;;;7.93;3.90;;;;;;;;;;4918459;29;20485;-74
2022/01/22 00:17:51;;;;;;;10.05;4.00;;;;;;;;;;4907215;29;20474;-73
2022/01/22 00:20:17;;;;;;;9.38;4.45;;;;;;;;;;4914241;29;20047;-72
2022/01/22 00:22:44;;;;;;;8.60;4.35;;;;;;;;;;4901567;29;20471;-72
2022/01/22 00:25:09;;;;;;;8.98;4.07;;;;;;;;;;4915992;29;20028;-73
2022/01/22 00:27:36;;;;;;;10.13;4.28;;;;;;;;;;4907695;29;20111;-73
2022/01/22 00:30:02;;;;;;;6.40;3.67;;;;;;;;;;4911040;29;20584;-72
2022/01/22 00:32:27;;;;;;;8.55;4.00;;;;;;;;;;4900559;29;20055;-73
2022/01/22 00:34:53;;;;;;;7.55;3.80;;;;;;;;;;4913993;29;20052;-72
2022/01/22 00:37:21;;;;;;;8.80;3.80;;;;;;;;;;4904651;29;20083;-75
2022/01/22 00:39:46;;;;;;;6.47;3.30;;;;;;;;;;4916830;29;20025;-72
2022/01/22 00:42:14;;;;;;;6.70;3.65;;;;;;;;;;4916769;29;20392;-71
2022/01/22 00:44:40;;;;;;;7.68;3.70;;;;;;;;;;4880852;29;20036;-72
2022/01/22 00:47:06;;;;;;;6.20;3.40;;;;;;;;;;4891907;29;20115;-75
2022/01/22 00:49:32;;;;;;;5.97;3.42;;;;;;;;;;4908977;29;20066;-72
2022/01/22 00:51:57;;;;;;;8.27;3.78;;;;;;;;;;4909869;29;20028;-73
2022/01/22 00:54:23;;;;;;;7.10;3.50;;;;;;;;;;4902217;29;20024;-72
2022/01/22 00:56:48;;;;;;;6.22;3.28;;;;;;;;;;4917305;29;20044;-71
2022/01/22 00:59:17;;;;;;;7.32;3.80;;;;;;;;;;4904227;29;20024;-72
2022/01/22 01:01:42;;;;;;;7.40;3.38;;;;;;;;;;4907977;29;20497;-75
2022/01/22 01:04:11;;;;;;;7.95;3.45;;;;;;;;;;4912831;29;20039;-75
2022/01/22 01:06:37;;;;;;;6.38;2.85;;;;;;;;;;4900271;29;20469;-74
2022/01/22 01:09:04;;;;;;;6.25;3.28;;;;;;;;;;4917069;29;20031;-72
2022/01/22 01:11:31;;;;;;;5.68;3.20;;;;;;;;;;4907044;29;20020;-72
2022/01/22 01:14:00;;;;;;;5.75;3.53;;;;;;;;;;4905539;29;20021;-72
2022/01/22 01:35:18;;;;;;;;;;;;;;;;;;4917692;29;20025;-73
2022/01/22 01:37:44;;;;;;;4.74;2.86;;;;;;;;;;4916750;29;19907;-77
2022/01/22 01:40:11;;;;;;;5.95;2.92;;;;;;;;;;4915856;29;20024;-73
2022/01/22 01:42:51;;;;;;;5.05;2.85;;;;;;;;;;4898872;29;20054;-72
2022/01/22 01:45:17;;;;;;;4.78;2.88;;;;;;;;;;4913122;29;20068;-73
2022/01/22 01:47:46;;;;;;;5.13;2.85;;;;;;;;;;4919938;29;20035;-73
2022/01/22 01:50:14;;;;;;;5.72;2.90;;;;;;;;;;4906166;29;20024;-72
2022/01/22 01:52:51;;;;;;;7.90;3.40;;;;;;;;;;4903087;29;20036;-72
2022/01/22 01:55:32;;;;;;;5.85;2.60;;;;;;;;;;4913137;29;20035;-72
2022/01/22 01:57:58;;;;;;;7.80;3.42;;;;;;;;;;4912742;29;20024;-73
2022/01/22 02:00:24;;;;;;;10.05;4.03;;;;;;;;;;4903853;29;20038;-73
2022/01/22 02:02:49;;;;;;;5.05;2.83;;;;;;;;;;4918637;29;20103;-72
2022/01/22 02:05:15;;;;;;;5.47;3.33;;;;;;;;;;4901523;29;20123;-72
2022/01/22 02:07:43;;;;;;;5.47;3.42;;;;;;;;;;4918756;29;20059;-72
2022/01/22 02:10:11;;;;;;;6.63;3.63;;;;;;;;;;4919147;29;20028;-72
2022/01/22 02:13:26;;;;;;;7.20;3.47;;;;;;;;;;4901702;29;20059;-72
2022/01/22 02:23:44;;;;;;;8.68;4.60;;;;;;;;;;4918670;29;20043;-72
2022/01/22 02:26:11;;;;;;;8.75;4.82;;;;;;;;;;4913428;29;20070;-72
2022/01/22 02:28:36;;;;;;;9.88;5.57;;;;;;;;;;4917065;29;20039;-72
2022/01/22 02:31:11;;;;;;;9.75;5.20;;;;;;;;;;4904526;29;20032;-73
2022/01/22 02:34:10;;;;;;;12.55;5.90;;;;;;;;;;4909203;29;20036;-73
2022/01/22 02:36:43;;;;;;;10.15;5.30;;;;;;;;;;4917652;29;20060;-73
2022/01/22 02:39:22;;;;;;;14.95;6.95;;;;;;;;;;4918686;29;20068;-75
2022/01/22 02:41:50;;;;;;;15.80;6.75;;;;;;;;;;4908333;29;20099;-72
2022/01/22 02:44:32;;;;;;;14.50;7.10;;;;;;;;;;4915611;29;20044;-76
2022/01/22 02:46:57;;;;;;;13.90;6.95;;;;;;;;;;4916077;29;20044;-72
2022/01/22 02:49:23;;;;;;;13.88;7.32;;;;;;;;;;4920454;29;20091;-73
2022/01/22 02:51:48;;;;;;;13.88;7.60;;;;;;;;;;4909202;29;20022;-75
2022/01/22 02:54:13;;;;;;;13.82;6.78;;;;;;;;;;4915541;29;20478;-72
2022/01/22 02:56:39;;;;;;;14.25;6.70;;;;;;;;;;4921265;29;20020;-74
2022/01/22 02:59:04;;;;;;;16.50;6.97;;;;;;;;;;4919996;29;20012;-73
2022/01/22 03:01:29;;;;;;;17.50;6.22;;;;;;;;;;4908260;29;20079;-74
2022/01/22 03:03:57;;;;;;;11.38;6.03;;;;;;;;;;4918234;29;20039;-75
2022/01/22 03:06:22;;;;;;;13.07;5.90;;;;;;;;;;4916859;29;20031;-77
2022/01/22 03:08:48;;;;;;;15.43;6.30;;;;;;;;;;4919991;29;20019;-73
2022/01/22 03:11:20;;;;;;;12.45;6.10;;;;;;;;;;4914316;29;20024;-73
2022/01/22 03:14:26;;;;;;;13.52;5.07;;;;;;;;;;4922306;29;20564;-75
2022/01/22 03:17:10;;;;;;;10.63;5.32;;;;;;;;;;4922339;29;20067;-75
2022/01/22 03:20:05;;;;;;;10.93;5.13;;;;;;;;;;4923143;29;20027;-74
2022/01/22 03:22:53;;;;;;;10.80;5.10;;;;;;;;;;4923353;29;20042;-72
2022/01/22 03:27:59;;;;;;;11.25;4.65;;;;;;;;;;4924913;29;20027;-73
2022/01/22 03:30:25;;;;;;;9.05;4.82;;;;;;;;;;4908310;29;20405;-72
2022/01/22 03:32:53;;;;;;;9.60;4.78;;;;;;;;;;4919460;29;20028;-73
2022/01/22 03:37:45;;;;;;;6.95;3.65;;;;;;;;;;4923235;29;20024;-73
2022/01/22 03:40:12;;;;;;;8.82;3.53;;;;;;;;;;4921754;29;20071;-75
2022/01/22 03:42:39;;;;;;;6.60;3.38;;;;;;;;;;4916869;29;20035;-72
2022/01/22 03:45:05;;;;;;;7.13;2.67;;;;;;;;;;4942314;23;20052;-74
2022/01/22 03:47:31;;;;;;;5.10;2.45;;;;;;;;;;4935390;29;20024;-75
2022/01/22 03:49:56;;;;;;;6.85;2.60;;;;;;;;;;4935570;29;20030;-75
2022/01/22 03:52:21;;;;;;;5.97;2.00;;;;;;;;;;4935582;29;20465;-75
2022/01/22 03:54:46;;;;;;;4.35;2.10;;;;;;;;;;4925998;29;20047;-75
2022/01/22 03:57:12;;;;;;;5.30;2.33;;;;;;;;;;4904241;29;20020;-74
2022/01/22 03:59:37;;;;;;;3.70;1.75;;;;;;;;;;4916677;29;20394;-74
2022/01/22 04:02:27;;;;;;;4.47;1.80;;;;;;;;;;4919856;29;20027;-75
2022/01/22 04:04:54;;;;;;;3.92;1.67;;;;;;;;;;4920926;29;20040;-75
2022/01/22 04:09:46;;;;;;;3.15;1.50;;;;;;;;;;4919616;29;20079;-73
2022/01/22 04:12:14;;;;;;;5.88;2.10;;;;;;;;;;4905287;29;20052;-75
2022/01/22 04:14:46;;;;;;;4.57;1.45;;;;;;;;;;4919559;29;20090;-73
2022/01/22 04:24:50;;;;;;;5.30;1.38;;;;;;;;;;4921021;29;20300;-75
2022/01/22 04:25:26;;;;;;;3.80;2.05;;;;;;;;;;4921424;29;20039;-74
2022/01/22 04:27:53;;;;;;;6.88;1.83;;;;;;;;;;4915285;29;20396;-76
2022/01/22 04:30:19;;;;;;;5.97;1.75;;;;;;;;;;4922493;29;20024;-75
2022/01/22 04:32:44;;;;;;;5.53;1.40;;;;;;;;;;4922038;29;20393;-75
2022/01/22 04:35:09;;;;;;;3.90;1.80;;;;;;;;;;4919756;29;20017;-75
2022/01/22 04:37:34;;;;;;;4.30;1.90;;;;;;;;;;4919234;29;20024;-75
2022/01/22 04:39:59;;;;;;;4.03;1.42;;;;;;;;;;4907018;29;20469;-73
2022/01/22 04:42:28;;;;;;;6.03;1.65;;;;;;;;;;4917777;29;20039;-74
2022/01/22 04:45:02;;;;;;;4.07;1.63;;;;;;;;;;4917191;29;20028;-74
2022/01/22 04:55:34;;;;;;;3.90;1.75;;;;;;;;;;4911644;29;20103;-75
2022/01/22 04:57:59;;;;;;;2.95;1.27;;;;;;;;;;4907481;29;20529;-75
2022/01/22 05:00:24;;;;;;;3.35;1.60;;;;;;;;;;4918186;29;20016;-73
2022/01/22 05:02:50;;;;;;;8.93;1.80;;;;;;;;;;4917749;29;20024;-75
2022/01/22 05:05:15;;;;;;;6.88;2.83;;;;;;;;;;4911924;29;20107;-74
2022/01/22 05:07:40;;;;;;;7.03;1.95;;;;;;;;;;4909204;29;20025;-73
2022/01/22 05:10:06;;;;;;;5.70;1.83;;;;;;;;;;4918436;29;20068;-74
2022/01/22 05:12:31;;;;;;;5.38;2.10;;;;;;;;;;4918158;29;20501;-75
2022/01/22 05:14:56;;;;;;;5.47;2.05;;;;;;;;;;4917244;29;20466;-74
2022/01/22 05:17:22;;;;;;;6.90;1.85;;;;;;;;;;4918484;29;20024;-74
2022/01/22 05:19:54;;;;;;;6.50;1.77;;;;;;;;;;4922684;29;20024;-75
2022/01/22 05:24:55;;;;;;;6.63;2.28;;;;;;;;;;4920641;29;20032;-73
2022/01/22 05:30:08;;;;;;;8.45;2.00;;;;;;;;;;4920308;29;20039;-73
2022/01/22 05:37:45;;;;;;;3.70;1.73;;;;;;;;;;4920431;29;20031;-74
2022/01/22 05:40:10;;;;;;;5.38;2.40;;;;;;;;;;4920087;29;20020;-75
2022/01/22 05:42:36;;;;;;;3.90;1.92;;;;;;;;;;4903159;29;20031;-74
2022/01/22 05:45:03;;;;;;;7.05;2.10;;;;;;;;;;4920647;29;20028;-76
2022/01/22 05:47:29;;;;;;;5.13;1.75;;;;;;;;;;4910542;29;20111;-74
2022/01/22 05:49:54;;;;;;;6.32;2.30;;;;;;;;;;4920214;29;20103;-74
2022/01/22 05:52:29;;;;;;;3.45;1.60;;;;;;;;;;4921165;29;20028;-75
2022/01/22 06:00:07;;;;;;;5.88;2.05;;;;;;;;;;4920248;29;20739;-74
2022/01/22 06:02:32;;;;;;;6.65;2.08;;;;;;;;;;4920345;29;20028;-73
2022/01/22 06:04:57;;;;;;;6.63;2.25;;;;;;;;;;4919106;29;20107;-74
2022/01/22 06:07:22;;;;;;;6.13;2.47;;;;;;;;;;4907735;29;20429;-76
2022/01/22 06:15:05;;;;;;;4.78;1.70;;;;;;;;;;4918894;29;20024;-75
2022/01/22 06:17:30;;;;;;;6.88;1.52;;;;;;;;;;4918466;29;20012;-75
2022/01/22 06:19:55;;;;;;;8.25;2.00;;;;;;;;;;4911478;29;20503;-75
2022/01/22 06:22:20;;;;;;;6.70;2.10;;;;;;;;;;4918036;29;20026;-75
2022/01/22 06:24:46;;;;;;;8.20;1.90;;;;;;;;;;4918348;29;20024;-75
2022/01/22 06:27:14;;;;;;;7.47;2.00;;;;;;;;;;4918713;29;20485;-75
2022/01/22 06:29:39;;;;;;;5.50;1.58;;;;;;;;;;4917722;29;20043;-75
2022/01/22 06:32:04;;;;;;;6.93;2.25;;;;;;;;;;4912160;29;20489;-75
2022/01/22 06:34:30;;;;;;;7.60;2.00;;;;;;;;;;4902289;29;20107;-75
2022/01/22 06:36:56;;;;;;;8.65;2.80;;;;;;;;;;4903339;29;20098;-75
2022/01/22 06:39:23;;;;;;;4.40;1.98;;;;;;;;;;4911528;29;20473;-75
2022/01/22 06:41:48;;;;;;;6.80;1.80;;;;;;;;;;4917929;29;20024;-75
2022/01/22 06:44:14;;;;;;;10.95;2.38;;;;;;;;;;4917971;29;20046;-73
2022/01/22 06:46:40;;;;;;;4.65;2.00;;;;;;;;;;4902723;29;20497;-73
2022/01/22 06:49:05;;;;;;;7.93;2.30;;;;;;;;;;4912823;29;20021;-73
2022/01/22 06:51:30;;;;;;;8.88;2.65;;;;;;;;;;4917981;29;20374;-73
2022/01/22 06:53:56;;;;;;;4.57;2.08;;;;;;;;;;4917493;29;20028;-73
2022/01/22 06:56:22;;;;;;;7.97;2.30;;;;;;;;;;4917795;29;20071;-76
2022/01/22 06:58:50;;;;;;;6.28;2.78;;;;;;;;;;4917911;29;20116;-75
2022/01/22 07:01:15;;;;;;;11.15;2.50;;;;;;;;;;4917779;29;20032;-73
2022/01/22 07:03:41;;;;;;;6.75;2.45;;;;;;;;;;4917439;29;20504;-74
2022/01/22 07:06:06;;;;;;;7.50;3.15;;;;;;;;;;4917531;29;20027;-75
2022/01/22 07:08:31;;;;;;;6.18;3.03;;;;;;;;;;4917607;29;20020;-75
2022/01/22 07:10:57;;;;;;;10.82;2.70;;;;;;;;;;4913598;29;20500;-73
2022/01/22 07:13:22;;;;;;;15.68;3.38;;;;;;;;;;4917348;29;20381;-73
2022/01/22 07:15:47;;;;;;;8.35;2.85;;;;;;;;;;4917651;29;20092;-74
2022/01/22 07:18:13;;;;;;;8.18;3.25;;;;;;;;;;4912765;29;20035;-76
2022/01/22 07:20:40;;;;;;;8.40;3.28;;;;;;;;;;4901923;29;20111;-75
2022/01/22 07:23:16;;;;;;;6.28;3.00;;;;;;;;;;4912864;29;20115;-74
2022/01/22 07:25:42;;;;;;;7.60;3.50;;;;;;;;;;4917697;29;20028;-76
2022/01/22 07:28:07;;;;;;;12.48;3.70;;;;;;;;;;4917256;29;20024;-75
2022/01/22 07:30:33;;;;;;;9.18;3.30;;;;;;;;;;4917361;29;20482;-75
2022/01/22 07:32:58;;;;;;;9.88;3.63;;;;;;;;;;4917176;29;20062;-75
2022/01/22 07:35:23;;;;;;;10.85;3.28;;;;;;;;;;4917918;29;20390;-73
2022/01/22 07:37:48;;;;;;;14.85;3.97;;;;;;;;;;4906872;29;20469;-75
2022/01/22 07:40:14;;;;;;;9.13;3.50;;;;;;;;;;4917309;29;20039;-75
2022/01/22 07:42:40;;;;;;;17.17;3.90;;;;;;;;;;4917253;29;20079;-75
2022/01/22 07:45:05;;;;;;;13.60;3.67;;;;;;;;;;4916559;29;20032;-75
2022/01/22 07:47:31;;;;;;;9.20;3.38;;;;;;;;;;4916055;29;20036;-73
2022/01/22 07:49:56;;;;;;;8.35;3.20;;;;;;;;;;4916242;29;20032;-75
2022/01/22 07:52:22;;;;;;;11.40;4.07;;;;;;;;;;4916027;29;20473;-74
2022/01/22 07:54:47;;;;;;;13.52;3.88;;;;;;;;;;4916097;29;20052;-74
2022/01/22 07:57:12;;;;;;;13.90;5.00;;;;;;;;;;4915939;29;20048;-73
2022/01/22 07:59:37;;;;;;;9.18;3.70;;;;;;;;;;4916088;29;20020;-74
2022/01/22 08:02:04;;;;;;;15.07;4.05;;;;;;;;;;4915538;29;20085;-75
2022/01/22 08:04:30;;;;;;;15.50;3.80;;;;;;;;;;4915837;29;20024;-74
2022/01/22 08:06:56;;;;;;;10.57;4.13;;;;;;;;;;4915887;29;20449;-74
2022/01/22 08:09:21;;;;;;;9.43;5.43;;;;;;;;;;4916725;29;20028;-73
2022/01/22 08:11:46;;;;;;;12.82;4.97;;;;;;;;;;4915632;29;20477;-75
2022/01/22 08:14:18;;;;;;;17.08;4.78;;;;;;;;;;4911047;29;20478;-75
2022/01/22 08:16:46;;;;;;;14.73;4.45;;;;;;;;;;4915414;29;20044;-74
2022/01/22 08:19:12;;;;;;;14.70;4.95;;;;;;;;;;4915638;29;20027;-75
2022/01/22 08:21:37;;;;;;;15.13;4.43;;;;;;;;;;4915857;29;20087;-74
2022/01/22 08:24:02;;;;;;;23.40;5.32;;;;;;;;;;4915531;29;20031;-75
2022/01/22 08:26:32;;;;;;;18.30;5.28;;;;;;;;;;4915735;29;20111;-74
2022/01/22 08:29:00;;;;;;;14.55;4.88;;;;;;;;;;4915763;29;20032;-73
2022/01/22 08:31:45;;;;;;;18.48;7.93;;;;;;;;;;4915697;29;20028;-75
2022/01/22 08:36:54;;;;;;;15.23;4.55;;;;;;;;;;4902629;29;20076;-75
2022/01/22 08:39:19;;;;;;;16.73;4.32;;;;;;;;;;4909151;29;20020;-74
2022/01/22 08:41:45;;;;;;;13.25;4.80;;;;;;;;;;4898668;29;20041;-74
2022/01/22 08:44:10;;;;;;;14.02;4.50;;;;;;;;;;4874095;29;1080414;-75
2022/01/22 08:46:36;;;;;;;13.55;5.20;;;;;;;;;;4916271;29;20026;-75
2022/01/22 08:49:04;;;;;;;15.05;4.32;;;;;;;;;;4916285;29;20020;-75
2022/01/22 08:51:29;;;;;;;16.42;4.90;;;;;;;;;;4916332;29;20031;-75
2022/01/22 08:53:55;;;;;;;16.50;4.57;;;;;;;;;;4915869;29;20509;-75
2022/01/22 08:56:20;;;;;;;15.10;4.95;;;;;;;;;;4916847;29;20024;-75
2022/01/22 08:58:45;;;;;;;17.17;5.25;;;;;;;;;;4916434;29;20473;-75
2022/01/22 09:01:11;;;;;;;11.73;4.80;;;;;;;;;;4916209;29;20016;-75
2022/01/22 09:03:36;;;;;;;13.23;4.75;;;;;;;;;;4915880;29;20447;-74
2022/01/22 09:06:03;;;;;;;14.50;4.32;;;;;;;;;;4903863;29;20397;-73
2022/01/22 09:08:28;;;;;;;13.35;4.45;;;;;;;;;;4916200;29;20024;-75
2022/01/22 09:10:53;;;;;;;11.93;4.78;;;;;;;;;;4915726;29;20535;-76
2022/01/22 09:13:19;;;;;;;14.27;5.30;;;;;;;;;;4915584;29;20080;-73
2022/01/22 09:15:45;;;;;;;16.92;4.43;;;;;;;;;;4908054;29;20051;-74
2022/01/22 09:18:10;;;;;;;19.58;4.80;;;;;;;;;;4916712;29;20016;-74
2022/01/22 09:23:05;;;;;;;18.23;4.88;;;;;;;;;;4915829;29;20080;-74
2022/01/22 09:25:30;;;;;;;14.88;5.20;;;;;;;;;;4915829;29;20477;-75
2022/01/22 09:27:55;;;;;;;13.07;4.82;;;;;;;;;;4916295;29;20380;-73
2022/01/22 09:30:24;;;;;;;17.73;4.72;;;;;;;;;;4916927;29;20032;-74
2022/01/22 09:32:49;;;;;;;14.40;4.85;;;;;;;;;;4916196;29;20494;-75
2022/01/22 09:35:15;;;;;;;16.17;4.90;;;;;;;;;;4916289;29;20035;-73
2022/01/22 09:37:40;;;;;;;15.38;4.95;;;;;;;;;;4915944;29;20358;-74
2022/01/22 09:40:06;;;;;;;14.40;5.50;;;;;;;;;;4916499;29;20462;-75
2022/01/22 09:42:31;;;;;;;15.15;5.18;;;;;;;;;;4917302;29;20024;-76
2022/01/22 09:44:56;;;;;;;12.02;4.88;;;;;;;;;;4956348;23;20582;-80
2022/01/22 09:47:21;;;;;;;14.48;5.20;;;;;;;;;;4918120;29;20538;-80
2022/01/22 09:49:47;;;;;;;16.88;5.18;;;;;;;;;;4918711;29;20031;-80
2022/01/22 09:52:12;;;;;;;10.55;4.63;;;;;;;;;;4917882;29;20465;-79
2022/01/22 09:54:37;;;;;;;15.55;5.18;;;;;;;;;;4912527;29;20024;-78
2022/01/22 09:57:04;;;;;;;14.20;4.72;;;;;;;;;;4898813;29;20100;-78
2022/01/22 09:59:30;;;;;;;11.85;4.85;;;;;;;;;;4899130;29;20482;-78
2022/01/22 10:02:07;;;;;;;17.02;4.55;;;;;;;;;;4899509;29;20016;-79
2022/01/22 10:04:36;;;;;;;14.00;5.18;;;;;;;;;;4896416;29;20107;-76
2022/01/22 10:07:02;;;;;;;15.55;5.18;;;;;;;;;;4885067;29;20073;-77
2022/01/22 10:09:34;;;;;;;17.08;5.47;;;;;;;;;;4901276;29;20025;-78
2022/01/22 10:12:07;;;;;;;16.27;4.50;;;;;;;;;;4894580;29;20320;-78
2022/01/22 10:14:32;;;;;;;11.15;4.53;;;;;;;;;;4901428;29;20072;-76
2022/01/22 10:16:57;;;;;;;20.35;6.57;;;;;;;;;;4900601;29;20099;-78
2022/01/22 10:19:26;;;;;;;16.10;5.05;;;;;;;;;;4902035;29;20091;-78
2022/01/22 10:21:59;;;;;;;11.82;5.13;;;;;;;;;;4908136;29;20024;-79
2022/01/22 10:24:27;;;;;;;15.25;5.90;;;;;;;;;;4907984;29;20024;-77
2022/01/22 10:27:11;;;;;;;19.00;5.25;;;;;;;;;;4901518;29;20501;-76
2022/01/22 10:29:39;;;;;;;18.60;5.55;;;;;;;;;;4891309;29;20032;-78
2022/01/22 10:32:05;;;;;;;27.95;6.82;;;;;;;;;;4899457;29;20028;-78
2022/01/22 10:34:30;;;;;;;14.88;5.35;;;;;;;;;;4902607;29;20084;-77
2022/01/22 10:36:57;;;;;;;14.23;5.75;;;;;;;;;;4907072;29;20703;-77
2022/01/22 10:39:24;;;;;;;18.77;6.80;;;;;;;;;;4902672;29;20036;-78
2022/01/22 10:41:50;;;;;;;16.15;6.47;;;;;;;;;;4900254;29;20024;-76
2022/01/22 10:44:20;;;;;;;21.60;6.82;;;;;;;;;;4899511;29;20025;-77
2022/01/22 10:46:49;;;;;;;15.25;5.63;;;;;;;;;;4899465;29;20025;-77
2022/01/22 10:49:21;;;;;;;16.15;5.97;;;;;;;;;;4899422;29;20513;-78
2022/01/22 10:51:46;;;;;;;21.27;6.72;;;;;;;;;;4907383;29;20021;-78
2022/01/22 10:54:13;;;;;;;19.10;6.10;;;;;;;;;;4886405;29;20029;-77
2022/01/22 10:56:41;;;;;;;13.05;6.10;;;;;;;;;;4900938;29;20025;-77
2022/01/22 10:59:07;;;;;;;18.00;7.45;;;;;;;;;;4905094;29;20031;-77
2022/01/22 11:01:38;;;;;;;14.30;6.00;;;;;;;;;;4906063;29;20447;-79
2022/01/22 11:04:04;;;;;;;17.63;5.50;;;;;;;;;;4912943;29;20021;-78
2022/01/22 11:06:29;;;;;;;15.45;6.25;;;;;;;;;;4914194;29;20020;-78
2022/01/22 11:08:54;;;;;;;15.32;6.20;;;;;;;;;;4900900;29;20047;-78
2022/01/22 11:11:20;;;;;;;13.13;5.75;;;;;;;;;;4900153;29;20478;-78
2022/01/22 11:13:45;;;;;;;13.05;5.85;;;;;;;;;;4898988;29;20052;-79
2022/01/22 11:16:11;;;;;;;10.93;5.32;;;;;;;;;;4898699;29;20024;-76
2022/01/22 11:18:37;;;;;;;16.95;5.40;;;;;;;;;;4897460;29;20024;-77
2022/01/22 11:21:03;;;;;;;11.55;5.22;;;;;;;;;;4897425;29;20028;-77
2022/01/22 11:23:29;;;;;;;12.07;5.07;;;;;;;;;;4897224;29;20028;-78
2022/01/22 11:25:54;;;;;;;9.50;5.25;;;;;;;;;;4896542;29;20028;-78
2022/01/22 11:28:20;;;;;;;10.48;5.60;;;;;;;;;;4896887;29;20094;-78
2022/01/22 11:30:46;;;;;;;13.82;6.20;;;;;;;;;;4896650;29;20025;-78
2022/01/22 11:33:13;;;;;;;15.15;6.13;;;;;;;;;;4897362;29;20447;-77
2022/01/22 11:35:57;;;;;;;13.00;5.47;;;;;;;;;;4896631;29;20448;-77
2022/01/22 11:38:27;;;;;;;8.73;4.70;;;;;;;;;;4897188;29;20203;-77
2022/01/22 11:41:06;;;;;;;10.65;5.00;;;;;;;;;;4898466;29;20028;-76
2022/01/22 11:43:55;;;;;;;14.45;5.25;;;;;;;;;;4897097;29;20029;-78
2022/01/22 11:46:27;;;;;;;10.63;4.13;;;;;;;;;;4898680;29;20035;-78
2022/01/22 11:49:10;;;;;;;11.90;4.60;;;;;;;;;;4898526;29;20497;-78
2022/01/22 11:51:36;;;;;;;6.55;3.60;;;;;;;;;;4898156;29;20024;-78
2022/01/22 11:54:01;;;;;;;9.23;3.70;;;;;;;;;;4898362;29;20084;-78
2022/01/22 11:56:45;;;;;;;13.32;3.63;;;;;;;;;;4897984;29;20020;-78
2022/01/22 11:59:16;;;;;;;9.80;3.25;;;;;;;;;;4897216;29;20029;-76
2022/01/22 12:01:51;;;;;;;9.23;3.40;;;;;;;;;;4898750;29;20055;-77
2022/01/22 12:04:18;;;;;;;9.27;3.88;;;;;;;;;;4898110;29;20021;-78
2022/01/22 12:07:04;;;;;;;9.40;3.40;;;;;;;;;;4898591;29;20042;-78
2022/01/22 12:09:32;;;;;;;9.00;3.67;;;;;;;;;;4899073;29;20020;-77
2022/01/22 12:14:49;;;;;;;8.00;3.72;;;;;;;;;;4898002;29;20057;-77
2022/01/22 12:17:20;;;;;;;9.02;4.55;;;;;;;;;;4898403;29;20029;-78
2022/01/22 12:20:16;;;;;;;7.40;3.67;;;;;;;;;;4898067;29;20016;-78
2022/01/22 12:22:37;;;;;;;10.45;3.70;;;;;;;;;;4897744;29;20581;-76
2022/01/22 12:25:02;;;;;;;10.85;4.00;;;;;;;;;;4896274;29;20123;-77
2022/01/22 12:27:42;;;;;;;8.02;3.80;;;;;;;;;;4897351;29;20021;-78
2022/01/22 12:30:08;;;;;;;9.70;3.60;;;;;;;;;;4897474;29;20294;-77
2022/01/22 12:32:46;;;;;;;10.35;4.22;;;;;;;;;;4896994;29;20056;-77
2022/01/22 12:35:15;;;;;;;15.25;3.90;;;;;;;;;;4897473;29;20024;-78
2022/01/22 12:37:43;;;;;;;17.63;7.30;;;;;;;;;;4897289;29;20044;-76
2022/01/22 12:40:09;;;;;;;13.63;5.25;;;;;;;;;;4897197;29;20025;-77
2022/01/22 12:42:51;;;;;;;14.55;5.47;;;;;;;;;;4897322;29;20036;-76
2022/01/22 12:45:17;;;;;;;21.73;9.13;;;;;;;;;;4895966;29;20044;-77
2022/01/22 12:47:49;;;;;;;12.40;5.85;;;;;;;;;;4897575;29;20036;-77
2022/01/22 12:50:15;;;;;;;10.52;4.82;;;;;;;;;;4897601;29;20037;-79
2022/01/22 12:52:45;;;;;;;11.75;4.38;;;;;;;;;;4895638;29;20076;-78
2022/01/22 12:55:14;;;;;;;13.50;5.80;;;;;;;;;;4895798;29;20505;-79
2022/01/22 12:57:39;;;;;;;;;;;;;;;;;;4896161;29;20037;-79
2022/01/22 13:00:09;;;;;;;12.88;3.78;;;;;;;;;;4897370;29;20006;-77
2022/01/22 13:02:58;;;;;;;11.48;4.55;;;;;;;;;;4895466;29;20032;-76
2022/01/22 13:05:24;;;;;;;10.25;5.15;;;;;;;;;;4897094;29;20105;-78
2022/01/22 13:07:55;;;;;;;11.90;4.47;;;;;;;;;;4897517;29;20025;-76
2022/01/22 13:10:26;;;;;;;13.40;5.07;;;;;;;;;;4896882;29;20024;-77
2022/01/22 13:12:53;;;;;;;16.80;6.40;;;;;;;;;;4896599;29;20475;-79
2022/01/22 13:15:18;;;;;;;12.45;4.65;;;;;;;;;;4896760;29;20060;-78
2022/01/22 13:17:52;;;;;;;12.02;5.05;;;;;;;;;;4897482;29;20183;-76
2022/01/22 13:20:24;;;;;;;12.48;3.88;;;;;;;;;;4896880;29;20024;-78
2022/01/22 13:22:49;;;;;;;10.38;4.07;;;;;;;;;;4897181;29;20029;-78
2022/01/22 13:25:15;;;;;;;10.10;3.85;;;;;;;;;;4898777;29;20024;-78
2022/01/22 13:27:41;;;;;;;12.32;4.07;;;;;;;;;;4899507;29;20024;-77
2022/01/22 13:30:08;;;;;;;9.00;3.72;;;;;;;;;;4901518;29;20029;-77
2022/01/22 13:32:52;;;;;;;7.60;3.42;;;;;;;;;;4897765;29;20482;-79
2022/01/22 13:48:54;;;;;;;10.80;4.60;;;;;;;;;;4901118;29;20393;-77
2022/01/22 13:51:19;;;;;;;;;;;;;;;;;;4900756;29;20028;-78
2022/01/22 13:53:46;;;;;;;12.77;4.60;;;;;;;;;;4899223;29;19966;-78
2022/01/22 13:56:12;;;;;;;20.48;4.72;;;;;;;;;;4899237;29;20470;-78
2022/01/22 13:58:38;;;;;;;11.38;5.03;;;;;;;;;;4900840;29;20109;-77
2022/01/22 14:01:28;;;;;;;19.75;6.10;;;;;;;;;;4900838;29;20056;-77
2022/01/22 14:04:13;;;;;;;15.48;6.22;;;;;;;;;;4900563;29;20021;-77
2022/01/22 14:06:41;;;;;;;10.50;5.25;;;;;;;;;;4900779;29;20024;-76
2022/01/22 14:09:14;;;;;;;13.47;5.47;;;;;;;;;;4900425;29;20099;-78
2022/01/22 14:11:58;;;;;;;8.57;4.30;;;;;;;;;;4899538;29;20036;-76
2022/01/22 14:14:25;;;;;;;11.88;4.55;;;;;;;;;;4901295;29;20033;-78
2022/01/22 14:17:05;;;;;;;18.85;4.78;;;;;;;;;;4901709;29;20501;-77
2022/01/22 14:19:31;;;;;;;9.07;4.60;;;;;;;;;;4905068;29;20020;-78
2022/01/22 14:21:59;;;;;;;14.52;6.13;;;;;;;;;;4907222;29;20035;-77
2022/01/22 14:24:29;;;;;;;17.25;4.90;;;;;;;;;;4912246;29;20008;-76
2022/01/22 14:26:54;;;;;;;9.02;4.60;;;;;;;;;;4916372;29;20028;-77
2022/01/22 14:29:20;;;;;;;15.30;4.50;;;;;;;;;;4906839;29;20035;-78
2022/01/22 14:31:50;;;;;;;13.30;4.55;;;;;;;;;;4901912;29;20033;-76
2022/01/22 14:34:28;;;;;;;10.75;3.72;;;;;;;;;;4900909;29;20055;-77
2022/01/22 14:36:53;;;;;;;10.60;5.05;;;;;;;;;;4898896;29;20020;-78
2022/01/22 14:44:49;;;;;;;8.65;4.28;;;;;;;;;;4904233;29;20442;-77
2022/01/22 14:47:15;;;;;;;12.80;5.47;;;;;;;;;;4901961;29;20608;-76
2022/01/22 14:49:44;;;;;;;13.07;4.32;;;;;;;;;;4903918;29;20084;-77
2022/01/22 14:52:10;;;;;;;11.45;5.07;;;;;;;;;;4901295;29;20490;-76
2022/01/22 14:54:36;;;;;;;10.65;5.30;;;;;;;;;;4901499;29;20058;-76
2022/01/22 14:57:03;;;;;;;15.48;5.25;;;;;;;;;;4901318;29;20180;-77
2022/01/22 14:59:28;;;;;;;15.18;5.78;;;;;;;;;;4898534;29;20115;-75
2022/01/22 15:01:54;;;;;;;24.75;6.18;;;;;;;;;;4899734;29;20100;-77
2022/01/22 15:04:19;;;;;;;16.98;6.15;;;;;;;;;;4899665;29;20470;-76
2022/01/22 15:06:45;;;;;;;13.68;6.30;;;;;;;;;;4899425;29;20209;-77
2022/01/22 15:09:11;;;;;;;15.82;6.07;;;;;;;;;;4899387;29;20048;-78
2022/01/22 15:11:37;;;;;;;15.20;6.22;;;;;;;;;;4897808;29;20099;-77
2022/01/22 15:14:03;;;;;;;13.93;6.30;;;;;;;;;;4902315;29;20025;-77
2022/01/22 15:16:37;;;;;;;14.07;6.13;;;;;;;;;;4901268;29;20080;-77
2022/01/22 15:19:04;;;;;;;13.90;6.28;;;;;;;;;;4900649;29;20546;-77
2022/01/22 15:21:29;;;;;;;15.50;5.70;;;;;;;;;;4899053;29;20017;-76
2022/01/22 15:23:55;;;;;;;15.35;5.95;;;;;;;;;;4898757;29;20103;-77
2022/01/22 15:26:20;;;;;;;21.88;7.13;;;;;;;;;;4897744;29;20071;-76
2022/01/22 15:28:46;;;;;;;19.02;6.25;;;;;;;;;;4899512;29;20020;-77
2022/01/22 15:31:32;;;;;;;14.60;6.03;;;;;;;;;;4899236;29;20501;-76
2022/01/22 15:34:55;;;;;;;17.77;6.30;;;;;;;;;;4900931;29;20058;-76
2022/01/22 15:36:46;;;;;;;19.40;6.45;;;;;;;;;;4898454;29;20033;-78
2022/01/22 15:39:11;;;;;;;15.13;6.93;;;;;;;;;;4900174;29;20028;-77
2022/01/22 15:41:37;;;;;;;14.32;5.90;;;;;;;;;;4899973;29;20040;-77
2022/01/22 15:44:04;;;;;;;16.00;5.95;;;;;;;;;;4900350;29;20035;-77
2022/01/22 15:46:29;;;;;;;14.57;6.70;;;;;;;;;;4902534;29;20044;-76
2022/01/22 15:48:55;;;;;;;20.33;7.20;;;;;;;;;;4901302;29;20040;-78
2022/01/22 15:51:20;;;;;;;17.05;6.10;;;;;;;;;;4900341;29;20032;-77
2022/01/22 15:53:45;;;;;;;17.15;6.75;;;;;;;;;;4899456;29;20320;-76
2022/01/22 15:56:11;;;;;;;18.27;6.93;;;;;;;;;;4899262;29;20020;-76
2022/01/22 15:58:36;;;;;;;19.48;7.88;;;;;;;;;;4899397;29;20024;-76
2022/01/22 16:01:01;;;;;;;16.63;7.60;;;;;;;;;;4899653;29;20021;-77
2022/01/22 16:03:27;;;;;;;18.98;7.28;;;;;;;;;;4897766;29;20032;-78
2022/01/22 16:05:56;;;;;;;18.42;8.88;;;;;;;;;;4898589;29;20028;-76
2022/01/22 16:08:22;;;;;;;27.83;8.82;;;;;;;;;;4899637;29;20099;-77
2022/01/22 16:10:47;;;;;;;23.77;9.32;;;;;;;;;;4898456;29;20056;-76
2022/01/22 16:13:14;;;;;;;20.60;8.75;;;;;;;;;;4898396;29;20051;-78
2022/01/22 16:15:40;;;;;;;20.75;8.85;;;;;;;;;;4898324;29;20088;-75
2022/01/22 16:18:05;;;;;;;28.15;10.52;;;;;;;;;;4912963;29;20485;-76
2022/01/22 16:20:30;;;;;;;31.40;10.38;;;;;;;;;;4898639;29;20025;-77